Time;durP1;ratioP1;P1;durP2;ratioP2;P2;SDS_P1;SDS_P2;PMS_P1;PMS_P2;Temp;Humidity;BMP_temperature;BMP_pressure;BME280_temperature;BME280_humidity;BME280_pressure;Samples;Min_cycle;Max_cycle;Signal;HPM_P1;HPM_P2
2021/08/16 00:02:07;;;;;;;8.25;5.50;;;;;;;18.36;74.33;100163.78;1666198;84;25802;-80
2021/08/16 00:04:34;;;;;;;8.80;5.60;;;;;;;18.36;74.30;100165.66;1667775;84;25846;-80
2021/08/16 00:07:01;;;;;;;8.45;5.28;;;;;;;18.37;74.30;100166.77;1676299;83;26182;-81
2021/08/16 00:09:28;;;;;;;10.72;5.90;;;;;;;18.39;74.28;100169.25;1709932;83;27452;-81
2021/08/16 00:11:55;;;;;;;12.20;6.17;;;;;;;18.41;74.20;100169.82;1700490;83;25774;-80
2021/08/16 00:14:22;;;;;;;10.93;7.05;;;;;;;18.43;74.21;100173.11;1648284;83;25875;-80
2021/08/16 00:16:49;;;;;;;11.40;7.10;;;;;;;18.45;74.20;100172.35;1634655;84;25892;-80
2021/08/16 00:19:17;;;;;;;9.48;6.00;;;;;;;18.50;74.24;100175.13;1710308;83;25781;-81
2021/08/16 00:21:44;;;;;;;10.00;6.10;;;;;;;18.52;74.24;100166.76;1672955;84;28326;-80
2021/08/16 00:24:11;;;;;;;7.03;5.60;;;;;;;18.52;74.23;100158.63;1627562;84;25922;-80
2021/08/16 00:26:38;;;;;;;10.08;5.60;;;;;;;18.48;74.19;100155.03;1666026;83;25859;-81
2021/08/16 00:29:05;;;;;;;10.82;5.78;;;;;;;18.45;74.20;100151.45;1660131;84;26241;-79
2021/08/16 00:31:32;;;;;;;9.23;6.20;;;;;;;18.43;74.35;100145.98;1701532;83;25341;-79
2021/08/16 00:33:59;;;;;;;9.03;5.67;;;;;;;18.38;74.33;100139.95;1686347;83;28261;-81
2021/08/16 00:36:26;;;;;;;9.43;5.67;;;;;;;18.34;74.39;100137.45;1620422;84;25566;-80
2021/08/16 00:38:53;;;;;;;11.95;5.60;;;;;;;18.32;74.49;100129.27;1666278;84;26481;-81
2021/08/16 00:41:21;;;;;;;13.22;5.90;;;;;;;18.32;74.32;100134.69;1628837;85;25837;-81
2021/08/16 00:43:50;;;;;;;8.98;5.92;;;;;;;18.29;74.40;100122.45;1667193;84;25886;-81
2021/08/16 00:46:18;;;;;;;7.90;6.08;;;;;;;18.30;74.27;100132.77;1674882;84;27566;-80
2021/08/16 00:48:45;;;;;;;12.93;7.22;;;;;;;18.29;74.36;100131.11;1706869;83;25850;-81
2021/08/16 00:51:13;;;;;;;13.55;7.40;;;;;;;18.28;74.26;100129.48;1680444;83;26016;-79
2021/08/16 00:53:41;;;;;;;11.20;6.78;;;;;;;18.29;74.45;100129.23;1687167;83;25909;-80
2021/08/16 00:56:08;;;;;;;11.35;6.60;;;;;;;18.31;74.70;100120.31;1687355;83;26567;-81
2021/08/16 00:58:36;;;;;;;11.63;6.72;;;;;;;18.31;74.63;100132.51;1710233;83;27606;-81
2021/08/16 01:01:03;;;;;;;11.43;7.78;;;;;;;18.30;74.96;100130.88;1695515;83;25935;-79
2021/08/16 01:03:30;;;;;;;18.32;8.18;;;;;;;18.24;75.33;100134.56;1685325;83;25577;-81
2021/08/16 01:05:58;;;;;;;13.25;7.90;;;;;;;18.23;75.62;100134.29;1708812;83;25454;-82
2021/08/16 01:08:26;;;;;;;11.78;7.72;;;;;;;18.23;75.86;100134.81;1704762;83;26007;-81
2021/08/16 01:10:54;;;;;;;11.43;7.75;;;;;;;18.25;76.19;100129.44;1684774;83;27181;-80
2021/08/16 01:13:22;;;;;;;14.78;8.13;;;;;;;18.29;76.32;100128.40;1647970;83;25326;-81
2021/08/16 01:16:04;;;;;;;10.63;7.95;;;;;;;18.32;76.46;100121.97;1711439;83;25998;-81
2021/08/16 01:18:34;;;;;;;15.48;8.83;;;;;;;18.35;76.48;100117.91;1670481;84;25870;-81
2021/08/16 01:21:04;;;;;;;13.85;8.40;;;;;;;18.35;76.69;100107.06;1623561;84;25423;-81
2021/08/16 01:23:32;;;;;;;16.37;8.90;;;;;;;18.34;76.62;100104.08;1650885;83;27051;-81
2021/08/16 01:25:59;;;;;;;13.38;8.90;;;;;;;18.34;76.76;100098.66;1676695;84;26100;-79
2021/08/16 01:28:27;;;;;;;16.32;9.55;;;;;;;18.34;76.79;100099.48;1669570;85;25892;-80
2021/08/16 01:31:02;;;;;;;11.78;7.70;;;;;;;18.34;76.85;100100.02;1620283;85;25858;-80
2021/08/16 01:33:30;;;;;;;10.78;8.05;;;;;;;18.31;76.75;100091.84;1623157;85;26590;-81
2021/08/16 01:35:57;;;;;;;11.57;7.62;;;;;;;18.30;76.77;100087.50;1654003;85;27639;-81
2021/08/16 01:38:37;;;;;;;11.50;7.25;;;;;;;18.29;76.78;100087.73;1667709;85;25804;-81
2021/08/16 01:41:05;;;;;;;12.43;7.62;;;;;;;18.28;76.83;100086.10;1656282;85;25941;-81
2021/08/16 01:43:32;;;;;;;11.60;7.40;;;;;;;18.27;76.91;100081.73;1656409;85;26322;-81
2021/08/16 01:45:59;;;;;;;11.93;7.97;;;;;;;18.28;76.98;100074.70;1667350;85;25923;-80
2021/08/16 01:48:27;;;;;;;10.60;7.42;;;;;;;18.30;77.11;100069.88;1652424;85;28355;-79
2021/08/16 01:50:55;;;;;;;14.53;7.45;;;;;;;18.30;77.36;100073.95;1629173;85;25972;-81
2021/08/16 01:53:22;;;;;;;14.95;7.53;;;;;;;18.31;77.53;100065.25;1631053;85;25908;-80
2021/08/16 01:55:49;;;;;;;12.03;8.18;;;;;;;18.33;77.55;100072.07;1659618;85;25738;-81
2021/08/16 01:58:16;;;;;;;14.53;8.78;;;;;;;18.36;77.71;100070.76;1663176;85;25773;-81
2021/08/16 02:00:43;;;;;;;9.98;8.25;;;;;;;18.37;77.72;100064.25;1654828;85;27666;-81
2021/08/16 02:03:11;;;;;;;15.65;8.78;;;;;;;18.38;77.74;100069.44;1626526;85;26283;-80
2021/08/16 02:05:38;;;;;;;12.03;9.45;;;;;;;18.41;77.87;100059.43;1678369;85;25791;-82
2021/08/16 02:08:05;;;;;;;12.15;9.98;;;;;;;18.43;78.09;100052.42;1662924;85;26571;-80
2021/08/16 02:10:32;;;;;;;17.17;9.40;;;;;;;18.42;78.36;100051.59;1631291;85;26069;-81
2021/08/16 02:12:59;;;;;;;16.27;10.28;;;;;;;18.44;78.39;100046.77;1620210;85;27378;-80
2021/08/16 02:15:27;;;;;;;17.67;9.13;;;;;;;18.44;78.45;100044.05;1665740;85;25771;-81
2021/08/16 02:17:54;;;;;;;14.33;9.45;;;;;;;18.44;78.53;100042.70;1669201;85;25308;-81
2021/08/16 02:20:21;;;;;;;14.38;10.05;;;;;;;18.47;78.76;100037.31;1615764;87;25801;-81
2021/08/16 02:22:48;;;;;;;14.55;9.60;;;;;;;18.48;78.71;100037.59;1600365;87;26586;-80
2021/08/16 02:25:15;;;;;;;13.45;8.98;;;;;;;18.49;78.66;100036.52;1645303;86;27438;-81
2021/08/16 02:27:49;;;;;;;13.58;9.25;;;;;;;18.50;78.73;100035.44;1645537;87;25964;-81
2021/08/16 02:30:17;;;;;;;11.53;9.18;;;;;;;18.53;78.73;100040.37;1621984;87;25665;-79
2021/08/16 02:32:45;;;;;;;12.58;8.65;;;;;;;18.52;79.01;100040.08;1603881;87;25896;-81
2021/08/16 02:35:13;;;;;;;15.00;9.65;;;;;;;18.51;78.78;100040.34;1645586;87;25835;-80
2021/08/16 02:37:41;;;;;;;13.75;9.20;;;;;;;18.53;78.94;100039.55;1645584;87;27438;-81
2021/08/16 02:40:11;;;;;;;15.28;9.35;;;;;;;18.54;78.90;100046.63;1601849;87;25969;-81
2021/08/16 02:42:39;;;;;;;11.83;9.30;;;;;;;18.55;79.01;100048.25;1574516;86;26028;-79
2021/08/16 02:45:07;;;;;;;16.07;9.83;;;;;;;18.53;79.02;100043.09;1658131;85;25844;-81
2021/08/16 02:47:35;;;;;;;15.35;10.58;;;;;;;18.51;79.27;100033.03;1645821;85;26508;-80
2021/08/16 02:50:02;;;;;;;15.15;10.20;;;;;;;18.50;79.44;100034.08;1601232;85;27521;-81
2021/08/16 02:52:29;;;;;;;14.13;9.40;;;;;;;18.48;79.32;100030.28;1617971;87;25862;-81
2021/08/16 02:54:58;;;;;;;17.20;10.65;;;;;;;18.52;79.49;100027.07;1655258;85;25820;-80
2021/08/16 02:57:25;;;;;;;14.75;9.88;;;;;;;18.54;79.54;100023.56;1660170;85;26241;-80
2021/08/16 02:59:52;;;;;;;11.30;9.68;;;;;;;18.54;79.75;100024.92;1622412;85;25554;-81
2021/08/16 03:02:19;;;;;;;17.02;10.58;;;;;;;18.52;79.66;100019.73;1614280;85;28272;-79
2021/08/16 03:04:46;;;;;;;16.10;9.68;;;;;;;18.51;79.72;100018.11;1628466;85;25880;-80
2021/08/16 03:07:13;;;;;;;13.32;10.32;;;;;;;18.51;79.89;100022.17;1626144;85;25872;-81
2021/08/16 03:09:40;;;;;;;14.50;10.03;;;;;;;18.52;79.86;100017.02;1632643;85;25837;-81
2021/08/16 03:12:08;;;;;;;14.35;10.25;;;;;;;18.52;79.90;100016.22;1605342;85;26196;-80
2021/08/16 03:14:35;;;;;;;15.85;10.53;;;;;;;18.53;79.96;100013.78;1658101;85;28131;-80
2021/08/16 03:17:02;;;;;;;13.38;10.32;;;;;;;18.54;80.15;100016.79;1657359;85;25998;-81
2021/08/16 03:19:29;;;;;;;13.80;10.15;;;;;;;18.52;80.18;100020.29;1606466;85;25381;-81
2021/08/16 03:21:56;;;;;;;17.05;10.50;;;;;;;18.53;80.32;100020.56;1612660;85;25869;-82
2021/08/16 03:24:23;;;;;;;17.17;10.55;;;;;;;18.51;80.28;100018.64;1668951;85;25885;-81
2021/08/16 03:26:51;;;;;;;16.95;10.38;;;;;;;18.50;80.58;100017.02;1664097;84;27621;-82
2021/08/16 03:29:18;;;;;;;16.32;11.20;;;;;;;18.50;80.62;100018.37;1603328;85;25567;-82
2021/08/16 03:31:45;;;;;;;16.80;10.65;;;;;;;18.51;80.72;100029.48;1624534;85;25874;-81
2021/08/16 03:34:13;;;;;;;14.30;11.10;;;;;;;18.52;80.82;100023.00;1652609;85;26003;-80
2021/08/16 03:36:40;;;;;;;15.05;11.30;;;;;;;18.52;80.70;100021.65;1650651;84;26341;-81
2021/08/16 03:39:08;;;;;;;19.17;12.33;;;;;;;18.54;80.86;100015.44;1603921;87;27459;-80
2021/08/16 03:41:36;;;;;;;14.98;12.68;;;;;;;18.55;80.90;100017.05;1601547;86;26628;-80
2021/08/16 03:44:03;;;;;;;17.20;13.93;;;;;;;18.54;80.92;100010.80;1674080;84;25385;-82
2021/08/16 03:46:31;;;;;;;16.30;12.80;;;;;;;18.54;81.14;100012.72;1675278;84;25778;-80
2021/08/16 03:48:57;;;;;;;18.92;13.08;;;;;;;18.54;81.13;100005.38;1609193;84;25858;-82
2021/08/16 03:51:24;;;;;;;16.90;11.15;;;;;;;18.55;81.40;100007.03;1625173;84;27184;-81
2021/08/16 03:53:51;;;;;;;16.48;12.10;;;;;;;18.53;81.47;100002.92;1666883;84;25809;-81
2021/08/16 03:56:18;;;;;;;17.02;12.23;;;;;;;18.55;81.55;99996.72;1673781;84;25941;-81
2021/08/16 03:58:45;;;;;;;18.90;13.20;;;;;;;18.56;81.58;99991.59;1623137;84;27079;-80
2021/08/16 04:01:12;;;;;;;14.60;11.85;;;;;;;18.57;81.91;99991.85;1631335;84;25869;-80
2021/08/16 04:03:41;;;;;;;17.60;12.35;;;;;;;18.58;81.80;99986.73;1664034;84;27622;-81
2021/08/16 04:06:08;;;;;;;19.02;12.23;;;;;;;18.58;81.84;99988.91;1668642;84;25845;-81
2021/08/16 04:08:39;;;;;;;18.92;13.72;;;;;;;18.60;81.75;99980.51;1644103;86;25830;-81
2021/08/16 04:11:12;;;;;;;17.70;12.70;;;;;;;18.62;81.96;99982.43;1637807;84;25908;-81
2021/08/16 04:13:39;;;;;;;19.12;14.33;;;;;;;18.63;81.87;99989.48;1675559;84;25833;-80
2021/08/16 04:16:06;;;;;;;16.05;13.32;;;;;;;18.65;82.03;99990.87;1679449;83;28183;-79
2021/08/16 04:18:33;;;;;;;20.37;13.72;;;;;;;18.67;82.24;99996.86;1595744;84;25820;-82
2021/08/16 04:21:00;;;;;;;18.50;13.28;;;;;;;18.68;82.18;100002.58;1628618;84;25900;-81
2021/08/16 04:23:27;;;;;;;20.62;14.13;;;;;;;18.70;82.17;99999.61;1683116;84;25897;-80
2021/08/16 04:25:54;;;;;;;19.25;13.58;;;;;;;18.72;82.18;99996.10;1686636;84;25963;-81
2021/08/16 04:28:21;;;;;;;16.23;11.90;;;;;;;18.76;82.23;99998.59;1640820;82;27623;-81
2021/08/16 04:30:48;;;;;;;17.90;12.85;;;;;;;18.78;82.05;99989.65;1639544;84;26086;-81
2021/08/16 04:33:17;;;;;;;14.07;12.40;;;;;;;18.81;82.10;99991.87;1690326;84;25777;-80
2021/08/16 04:35:45;;;;;;;21.65;12.90;;;;;;;18.85;82.05;99991.64;1686980;84;25474;-81
2021/08/16 04:38:12;;;;;;;16.73;12.82;;;;;;;18.87;82.08;99988.13;1636037;82;26579;-81
2021/08/16 04:40:39;;;;;;;18.42;13.40;;;;;;;18.87;82.14;99987.59;1677988;83;27635;-81
2021/08/16 04:43:06;;;;;;;16.23;12.47;;;;;;;18.90;81.98;99993.06;1666981;84;25889;-81
2021/08/16 04:45:33;;;;;;;18.00;13.53;;;;;;;18.94;82.15;99995.54;1641011;84;26169;-81
2021/08/16 04:48:00;;;;;;;16.27;13.60;;;;;;;18.97;82.20;99982.27;1642961;84;25860;-81
2021/08/16 04:50:28;;;;;;;18.15;13.30;;;;;;;19.00;82.19;99976.87;1694227;83;25525;-81
2021/08/16 04:52:55;;;;;;;18.48;14.38;;;;;;;19.03;82.12;99976.37;1659113;84;27220;-81
2021/08/16 04:55:22;;;;;;;17.55;13.80;;;;;;;19.05;82.14;99983.16;1632264;84;26555;-80
2021/08/16 04:57:49;;;;;;;17.50;14.65;;;;;;;19.08;82.17;99983.19;1662668;84;26532;-80
2021/08/16 05:00:19;;;;;;;17.02;14.00;;;;;;;19.11;82.03;99979.97;1690086;83;25925;-81
2021/08/16 05:02:46;;;;;;;20.88;14.65;;;;;;;19.15;82.03;99981.91;1673581;83;25895;-82
2021/08/16 05:05:14;;;;;;;18.67;14.95;;;;;;;19.17;82.06;99985.19;1609856;84;27626;-81
2021/08/16 05:07:53;;;;;;;22.95;15.48;;;;;;;19.18;82.10;99979.23;1699887;83;25868;-80
2021/08/16 05:10:25;;;;;;;18.85;14.05;;;;;;;19.22;82.26;99973.56;1677769;84;26641;-81
2021/08/16 05:12:55;;;;;;;19.30;14.70;;;;;;;19.26;82.32;99974.67;1673963;84;26369;-81
2021/08/16 05:15:22;;;;;;;17.42;14.40;;;;;;;19.30;82.29;99972.25;1644178;83;25843;-82
2021/08/16 05:17:49;;;;;;;16.40;13.10;;;;;;;19.35;82.35;99958.77;1636381;84;28186;-83
2021/08/16 05:20:17;;;;;;;17.60;13.40;;;;;;;19.40;82.45;99955.53;1683255;83;25852;-81
2021/08/16 05:22:46;;;;;;;16.52;14.68;;;;;;;19.48;82.48;99950.17;1664926;84;25948;-81
2021/08/16 05:25:15;;;;;;;17.65;13.78;;;;;;;19.54;82.26;99960.82;1639107;83;25791;-81
2021/08/16 05:27:42;;;;;;;17.60;14.00;;;;;;;19.62;82.36;99961.69;1671631;83;26582;-81
2021/08/16 05:30:10;;;;;;;17.12;13.08;;;;;;;19.69;82.23;99951.42;1701998;81;27605;-82
2021/08/16 05:32:38;;;;;;;16.15;14.33;;;;;;;19.77;82.17;99950.09;1672778;83;25797;-81
2021/08/16 05:35:07;;;;;;;17.95;13.75;;;;;;;19.84;82.16;99950.16;1650474;84;25976;-82
2021/08/16 05:37:34;;;;;;;18.42;13.65;;;;;;;19.91;82.13;99947.18;1651029;83;26261;-82
2021/08/16 05:40:01;;;;;;;18.82;14.07;;;;;;;19.96;82.17;99942.61;1699167;83;25818;-81
2021/08/16 05:42:28;;;;;;;15.03;12.90;;;;;;;20.02;82.18;99940.72;1696733;83;27336;-82
2021/08/16 05:44:55;;;;;;;19.45;14.40;;;;;;;20.08;82.35;99938.86;1633530;83;25422;-80
2021/08/16 05:47:22;;;;;;;20.52;14.95;;;;;;;20.13;82.46;99940.23;1666107;83;26623;-81
2021/08/16 05:49:49;;;;;;;15.95;12.55;;;;;;;20.17;82.49;99942.16;1693399;82;25823;-81
2021/08/16 05:52:16;;;;;;;14.55;12.88;;;;;;;20.22;82.58;99934.59;1661121;83;25815;-82
2021/08/16 05:54:43;;;;;;;15.88;12.33;;;;;;;20.27;82.65;99925.11;1669741;83;28225;-81
2021/08/16 05:57:10;;;;;;;15.68;13.10;;;;;;;20.34;82.75;99923.77;1681386;83;25947;-82
2021/08/16 05:59:37;;;;;;;14.10;11.75;;;;;;;20.40;82.72;99922.69;1709974;81;26540;-81
2021/08/16 06:02:04;;;;;;;16.10;14.13;;;;;;;20.47;82.69;99913.75;1699359;83;25719;-82
2021/08/16 06:04:33;;;;;;;17.52;12.65;;;;;;;20.56;82.73;99912.14;1645444;83;25650;-82
2021/08/16 06:07:00;;;;;;;15.32;13.80;;;;;;;20.64;82.78;99912.97;1671321;83;27478;-82
2021/08/16 06:09:27;;;;;;;14.87;13.28;;;;;;;20.72;82.88;99912.44;1672298;84;25691;-82
2021/08/16 06:11:54;;;;;;;18.05;13.62;;;;;;;20.79;82.72;99914.91;1619813;85;25939;-81
2021/08/16 06:14:21;;;;;;;16.55;13.83;;;;;;;20.87;82.90;99917.66;1626421;85;25873;-82
2021/08/16 06:16:48;;;;;;;17.82;14.58;;;;;;;20.94;82.91;99923.09;1630269;85;25888;-82
2021/08/16 06:19:15;;;;;;;16.23;12.50;;;;;;;21.00;82.54;99913.04;1648138;85;28096;-81
2021/08/16 06:21:43;;;;;;;13.90;12.40;;;;;;;21.12;82.42;99907.63;1649526;85;25740;-81
2021/08/16 06:24:11;;;;;;;13.90;11.75;;;;;;;21.26;82.31;99911.97;1624970;85;26614;-82
2021/08/16 06:26:38;;;;;;;13.13;11.60;;;;;;;21.45;82.04;99915.77;1618683;86;26396;-81
2021/08/16 06:29:06;;;;;;;12.60;10.70;;;;;;;21.66;82.03;99916.57;1666828;85;25755;-82
2021/08/16 06:31:33;;;;;;;12.13;10.68;;;;;;;21.83;82.36;99919.84;1640898;85;28603;-81
2021/08/16 06:34:01;;;;;;;11.05;9.70;;;;;;;22.00;81.87;99918.43;1638558;85;25796;-81
2021/08/16 06:36:28;;;;;;;13.28;11.15;;;;;;;22.18;81.24;99922.44;1645991;85;25874;-81
2021/08/16 06:38:55;;;;;;;11.50;10.40;;;;;;;22.33;80.75;99918.81;1626367;85;25980;-81
2021/08/16 06:41:22;;;;;;;11.10;9.83;;;;;;;22.50;80.35;99915.19;1639110;85;26067;-81
2021/08/16 06:43:50;;;;;;;10.20;8.28;;;;;;;22.65;79.67;99913.22;1598438;85;27582;-81
2021/08/16 06:46:17;;;;;;;10.13;8.63;;;;;;;22.79;78.90;99907.96;1675905;85;25877;-81
2021/08/16 06:48:44;;;;;;;10.85;8.58;;;;;;;22.93;78.93;99903.48;1631830;85;25825;-81
2021/08/16 06:51:11;;;;;;;10.68;9.08;;;;;;;23.06;77.87;99909.67;1651570;85;25882;-79
2021/08/16 06:53:38;;;;;;;11.08;8.90;;;;;;;23.19;77.86;99903.55;1626352;85;25816;-80
2021/08/16 06:56:05;;;;;;;8.58;7.67;;;;;;;23.31;77.21;99903.98;1646755;86;27567;-80
2021/08/16 06:58:33;;;;;;;12.18;7.58;;;;;;;23.43;76.82;99897.64;1660561;83;25978;-80
2021/08/16 07:01:00;;;;;;;9.73;7.08;;;;;;;23.56;75.89;99896.97;1647362;85;26264;-80
2021/08/16 07:03:29;;;;;;;11.22;8.38;;;;;;;23.66;74.99;99888.66;1590685;85;26674;-81
2021/08/16 07:05:56;;;;;;;10.15;7.58;;;;;;;23.76;74.70;99889.08;1645629;85;25874;-81
2021/08/16 07:08:23;;;;;;;10.35;7.00;;;;;;;23.88;73.39;99884.59;1659939;84;27482;-81
2021/08/16 07:10:50;;;;;;;7.22;6.37;;;;;;;23.96;72.59;99879.84;1651027;85;25349;-81
2021/08/16 07:13:17;;;;;;;8.33;6.67;;;;;;;24.03;72.02;99881.13;1638512;83;26540;-81
2021/08/16 07:15:44;;;;;;;9.60;6.45;;;;;;;24.10;71.86;99881.59;1644737;84;25881;-81
2021/08/16 07:18:11;;;;;;;6.10;5.50;;;;;;;24.21;71.92;99883.65;1694947;84;25603;-81
2021/08/16 07:20:38;;;;;;;6.00;5.40;;;;;;;24.29;71.28;99874.23;1667206;84;27292;-81
2021/08/16 07:23:05;;;;;;;7.70;6.00;;;;;;;24.38;70.30;99871.66;1632216;85;26626;-81
2021/08/16 07:25:32;;;;;;;6.25;5.42;;;;;;;24.47;69.91;99867.15;1643349;86;26092;-82
2021/08/16 07:28:00;;;;;;;6.15;5.15;;;;;;;24.56;69.54;99864.56;1690952;83;25881;-81
2021/08/16 07:30:27;;;;;;;5.97;5.20;;;;;;;24.61;68.86;99863.13;1668319;84;25845;-82
2021/08/16 07:32:54;;;;;;;6.30;5.03;;;;;;;24.65;67.62;99863.61;1649146;84;28464;-81
2021/08/16 07:35:22;;;;;;;5.50;4.97;;;;;;;24.72;67.37;99861.29;1636935;86;25872;-81
2021/08/16 07:37:49;;;;;;;5.50;4.78;;;;;;;24.80;67.84;99862.05;1690587;84;25966;-83
2021/08/16 07:40:17;;;;;;;6.35;4.47;;;;;;;24.89;67.03;99865.70;1692107;84;25832;-82
2021/08/16 07:42:44;;;;;;;5.22;4.28;;;;;;;25.00;66.27;99860.91;1648905;83;25864;-82
2021/08/16 07:45:12;;;;;;;6.15;4.62;;;;;;;25.09;65.94;99859.91;1672389;84;27479;-82
2021/08/16 07:47:39;;;;;;;6.30;4.85;;;;;;;25.20;65.74;99861.92;1691879;84;25860;-82
2021/08/16 07:50:11;;;;;;;7.85;4.70;;;;;;;25.29;65.97;99861.49;1692296;84;25410;-82
2021/08/16 07:52:42;;;;;;;5.05;4.47;;;;;;;25.36;65.10;99865.22;1667869;84;25913;-81
2021/08/16 07:55:09;;;;;;;;;;;;;;;25.49;64.57;99867.99;1650710;84;25934;-81
2021/08/16 07:57:37;;;;;;;5.15;4.22;;;;;;;25.57;64.01;99875.55;1692720;84;27572;-82
2021/08/16 08:00:08;;;;;;;8.08;4.90;;;;;;;25.59;63.99;99871.94;1650584;84;25913;-82
2021/08/16 08:02:49;;;;;;;6.95;4.00;;;;;;;25.52;63.20;99880.30;1628735;85;25986;-81
2021/08/16 08:05:20;;;;;;;11.30;4.28;;;;;;;25.41;63.26;99887.86;1651753;85;25889;-80
2021/08/16 08:07:47;;;;;;;8.20;4.75;;;;;;;25.26;63.41;99875.23;1668923;85;26410;-80
2021/08/16 08:10:17;;;;;;;10.78;5.65;;;;;;;25.11;63.89;99876.05;1643715;85;28189;-81
2021/08/16 08:12:46;;;;;;;6.65;4.70;;;;;;;24.93;64.69;99876.36;1640761;85;25807;-81
2021/08/16 08:15:14;;;;;;;5.85;5.20;;;;;;;24.77;65.42;99875.50;1678559;84;25326;-80
2021/08/16 08:17:41;;;;;;;7.33;5.05;;;;;;;24.69;66.47;99878.88;1632417;84;25846;-80
2021/08/16 08:20:09;;;;;;;8.70;6.03;;;;;;;24.66;66.94;99893.19;1665727;85;25951;-81
2021/08/16 08:22:36;;;;;;;10.93;5.37;;;;;;;24.66;67.80;99901.41;1629381;85;28167;-81
2021/08/16 08:25:07;;;;;;;7.03;5.90;;;;;;;24.66;68.01;99896.72;1670585;84;25842;-81
2021/08/16 08:27:34;;;;;;;6.17;5.58;;;;;;;24.65;68.39;99910.72;1660243;84;25828;-81
2021/08/16 08:30:02;;;;;;;9.85;5.50;;;;;;;24.60;68.79;99910.78;1655289;84;25779;-81
2021/08/16 08:32:29;;;;;;;8.33;5.65;;;;;;;24.53;69.15;99891.97;1624207;85;25928;-82
2021/08/16 08:34:56;;;;;;;8.53;6.12;;;;;;;24.48;69.00;99877.01;1670674;85;27602;-81
2021/08/16 08:37:23;;;;;;;7.78;6.28;;;;;;;24.42;68.90;99872.72;1658415;84;25358;-83
2021/08/16 08:39:50;;;;;;;9.38;6.33;;;;;;;24.35;69.13;99871.71;1620994;85;25894;-80
2021/08/16 08:42:17;;;;;;;13.10;6.83;;;;;;;24.31;69.49;99884.91;1648468;84;25818;-81
2021/08/16 08:44:44;;;;;;;11.12;6.20;;;;;;;24.24;69.85;99900.32;1666096;84;25853;-81
2021/08/16 08:47:13;;;;;;;9.38;6.45;;;;;;;24.21;70.38;99892.68;1643551;84;27576;-81
2021/08/16 08:49:41;;;;;;;8.50;5.47;;;;;;;24.23;70.68;99895.14;1640033;84;25834;-80
2021/08/16 08:52:09;;;;;;;10.35;6.30;;;;;;;24.26;71.04;99891.27;1698419;83;25852;-81
2021/08/16 08:54:36;;;;;;;8.40;6.22;;;;;;;24.28;70.89;99890.41;1707167;83;26655;-80
2021/08/16 08:57:05;;;;;;;7.90;7.00;;;;;;;24.30;70.88;99893.67;1680621;83;25862;-80
2021/08/16 08:59:32;;;;;;;10.93;6.80;;;;;;;24.35;70.71;99896.89;1675684;84;27577;-81
2021/08/16 09:02:01;;;;;;;7.20;6.20;;;;;;;24.41;71.20;99895.71;1651946;83;25952;-79
2021/08/16 09:04:28;;;;;;;8.73;6.62;;;;;;;24.46;71.40;99881.97;1691358;84;25757;-78
2021/08/16 09:06:56;;;;;;;7.80;6.37;;;;;;;24.50;71.23;99883.82;1669627;84;25888;-79
2021/08/16 09:09:23;;;;;;;7.25;6.55;;;;;;;24.50;71.35;99889.84;1630308;84;25985;-79
2021/08/16 09:11:52;;;;;;;9.15;6.53;;;;;;;24.52;71.49;99895.84;1629042;84;27532;-80
2021/08/16 09:14:21;;;;;;;6.87;6.17;;;;;;;24.55;71.13;99898.55;1649515;84;26606;-79
2021/08/16 09:16:49;;;;;;;10.20;6.75;;;;;;;24.52;70.74;99905.42;1637601;84;25987;-81
2021/08/16 09:19:24;;;;;;;9.10;7.17;;;;;;;24.52;71.37;99898.58;1642376;84;25879;-82
2021/08/16 09:22:07;;;;;;;8.75;7.22;;;;;;;24.58;71.53;99899.31;1619018;85;26586;-81
2021/08/16 09:24:34;;;;;;;7.33;6.62;;;;;;;24.67;71.99;99888.78;1660633;85;27593;-81
2021/08/16 09:27:06;;;;;;;9.25;6.28;;;;;;;24.78;72.14;99883.44;1634001;85;26071;-82
2021/08/16 09:29:33;;;;;;;9.78;6.40;;;;;;;24.94;72.15;99890.30;1620568;85;26122;-81
2021/08/16 09:32:03;;;;;;;8.45;6.17;;;;;;;25.17;72.04;99881.73;1653988;84;25898;-82
2021/08/16 09:34:42;;;;;;;;;;;;;;;25.38;70.93;99880.80;1675155;84;25823;-81
2021/08/16 09:37:26;;;;;;;6.87;5.90;;;;;;;25.58;71.03;99874.42;1652989;84;27504;-80
2021/08/16 09:40:18;;;;;;;9.90;6.65;;;;;;;25.75;70.76;99868.33;1614329;85;25392;-80
2021/08/16 09:42:51;;;;;;;7.20;5.85;;;;;;;25.91;69.24;99860.06;1668649;83;25940;-80
2021/08/16 09:45:38;;;;;;;9.70;6.25;;;;;;;26.09;69.24;99861.91;1661446;84;25849;-81
2021/08/16 09:48:09;;;;;;;8.10;6.33;;;;;;;26.24;68.23;99858.84;1624659;85;25657;-81
2021/08/16 09:50:44;;;;;;;;;;;;;;;26.29;67.50;99851.88;1655417;85;27436;-78
2021/08/16 09:53:16;;;;;;;9.75;6.00;;;;;;;26.25;67.18;99854.16;1667029;85;25321;-80
2021/08/16 09:55:45;;;;;;;;;;;;;;;26.21;66.83;99863.58;1630171;86;25960;-81
2021/08/16 09:58:15;;;;;;;6.67;5.15;;;;;;;26.17;66.63;99863.95;1627557;84;26051;-81
2021/08/16 10:00:45;;;;;;;6.00;5.22;;;;;;;26.10;66.66;99862.17;1667479;84;25870;-80
2021/08/16 10:03:12;;;;;;;9.03;5.93;;;;;;;26.07;66.65;99859.20;1663422;85;27561;-81
2021/08/16 10:05:45;;;;;;;8.85;6.17;;;;;;;26.08;67.08;99862.19;1635793;85;25360;-80
2021/08/16 10:08:22;;;;;;;7.95;5.95;;;;;;;26.11;67.39;99858.28;1626798;85;25697;-81
2021/08/16 10:10:56;;;;;;;8.03;5.42;;;;;;;26.12;67.33;99858.55;1650762;84;25918;-82
2021/08/16 10:13:26;;;;;;;5.80;5.20;;;;;;;26.10;66.90;99866.84;1657605;85;54241;-81
2021/08/16 10:16:04;;;;;;;8.88;6.40;;;;;;;26.09;66.41;99863.86;1651567;84;27484;-80
2021/08/16 10:18:46;;;;;;;9.33;5.60;;;;;;;26.03;66.35;99866.66;1665509;85;25372;-81
2021/08/16 10:21:19;;;;;;;9.03;6.12;;;;;;;25.99;66.47;99873.89;1657924;85;25766;-80
2021/08/16 10:23:49;;;;;;;6.40;5.65;;;;;;;25.97;66.75;99873.38;1667281;84;25938;-80
2021/08/16 10:26:36;;;;;;;8.03;5.53;;;;;;;25.98;66.94;99880.48;1666606;84;25631;-81
2021/08/16 10:29:05;;;;;;;8.95;5.95;;;;;;;26.04;66.95;99871.60;1666913;82;27606;-81
2021/08/16 10:31:38;;;;;;;7.92;6.10;;;;;;;26.14;67.37;99874.71;1646399;84;25541;-80
2021/08/16 10:34:05;;;;;;;7.00;5.28;;;;;;;26.28;67.52;99861.80;1676307;84;25977;-81
2021/08/16 10:36:32;;;;;;;8.55;5.60;;;;;;;26.47;67.47;99859.17;1645036;84;25861;-81
2021/08/16 10:39:02;;;;;;;7.03;5.22;;;;;;;26.64;66.77;99846.95;1654264;84;26000;-80
2021/08/16 10:41:39;;;;;;;7.47;5.22;;;;;;;26.79;66.14;99843.61;1685155;82;28281;-80
2021/08/16 10:44:16;;;;;;;7.30;5.20;;;;;;;26.95;65.73;99847.60;1718821;82;25380;-80
2021/08/16 10:47:01;;;;;;;10.00;5.30;;;;;;;27.03;64.66;99848.25;1659339;83;25803;-80
2021/08/16 10:49:36;;;;;;;11.50;5.20;;;;;;;27.04;63.03;99840.23;1678192;82;25888;-81
2021/08/16 10:52:05;;;;;;;9.45;5.12;;;;;;;26.97;61.81;99845.35;1675179;82;25334;-81
2021/08/16 10:54:34;;;;;;;11.83;5.12;;;;;;;26.87;62.16;99848.36;1712301;82;28150;-80
2021/08/16 10:57:02;;;;;;;8.45;5.53;;;;;;;26.77;61.99;99843.94;1656677;83;26577;-81
2021/08/16 10:59:31;;;;;;;7.42;5.28;;;;;;;26.64;61.94;99844.21;1662870;83;25573;-81
2021/08/16 11:01:58;;;;;;;7.35;5.47;;;;;;;26.55;62.15;99840.57;1645288;84;26047;-81
2021/08/16 11:04:37;;;;;;;7.70;5.95;;;;;;;26.49;61.73;99831.38;1715446;82;25780;-81
2021/08/16 11:07:07;;;;;;;6.37;5.33;;;;;;;26.43;62.34;99840.87;1641134;84;27456;-80
2021/08/16 11:09:38;;;;;;;6.37;5.35;;;;;;;26.40;62.68;99835.98;1685168;82;26000;-81
2021/08/16 11:12:09;;;;;;;;;;;;;;;26.37;62.98;99809.94;1660484;84;25787;-80
2021/08/16 11:14:42;;;;;;;6.45;5.60;;;;;;;26.34;62.81;99828.43;1693013;82;26432;-81
2021/08/16 11:17:10;;;;;;;6.28;5.22;;;;;;;26.30;63.12;99819.73;1659006;84;25846;-81
2021/08/16 11:19:47;;;;;;;5.67;5.08;;;;;;;26.28;63.04;99817.87;1616084;85;27362;-81
2021/08/16 11:22:16;;;;;;;7.85;5.40;;;;;;;26.28;62.64;99812.38;1700439;83;27098;-81
2021/08/16 11:24:47;;;;;;;7.17;5.30;;;;;;;26.33;62.52;99813.61;1706134;82;25833;-81
2021/08/16 11:27:25;;;;;;;8.53;5.35;;;;;;;26.40;62.49;99815.38;1650163;83;25878;-81
2021/08/16 11:29:58;;;;;;;5.53;3.90;;;;;;;26.48;62.00;99818.76;1661737;83;25428;-81
2021/08/16 11:32:28;;;;;;;5.67;4.08;;;;;;;26.59;61.29;99816.84;1687937;83;27090;-81